Decoded Metar for LFSX (LUXEUIL in FRANCE) (IATA:N/A) | Meteo·Mobile Aviation Weather
aviador You're here:

LFSX Decoded Metar

LUXEUIL in FRANCE
Report Time2019-02-23 00:00:00
UTC Time2019-02-23 00:32:27
Flight Rules vfr VFR
Wind090° at 02 kt
W.Decomp.*RWY 11: 1.9 kt HW 0.7 kt LCW
W.Rank090° ranks 7
Current wind is below 090° avg. (3.6)
Visibility9999 m
Phenomena:N/A
Clouds:N/A
Expected CloudBase > 400 ft AGL from Temp-Dew spread
CeilingNone
Temp02°C (ISA -11)
Dew Point01°C (93% RH)
AAT-0.6°C
QNH1033 hPa
Density Alt-1,050 ft
Elevation896 ft
Report Wrong Elevation
Raw Report
LFSX 230000Z AUTO 09002KT CAVOK 02/01 Q1033=

Extra information for LFSX:More info

Metar Taf Metar & Taf Last 4 Metars F.Rules Stats Wind Profile Meteogram Temp Stats Airport Information Weather charts Add Link Nearby VenuesMetar ALERT Operation Metar Decoded Social comments